GPD1004 KHPN-KACK
Flight info
| Callsign | GPD1004 |
|---|---|
| Flight time | 1h 20m |
| Altitude | 7000 |
| Route | BAYYS SEALL V188 GON DEEPO2 |
| Aircraft | C208/L-SDFGR/C |
Departure
| Time | 2026-05-05 02:31 |
|---|---|
| Airport | Westchester County Airport (KHPN) |
Arrival
| Time | 2026-05-05 03:51 |
|---|---|
| Airport | Nantucket Memorial Airport (KACK) |
| Time | Latitude | Longitude | Altitude | Speed | Heading |
|---|---|---|---|---|---|
| 2026-05-05 01:53 | 41.06362 | -73.70970 | 419 ft | 0 kts | 194° |
| 2026-05-05 02:25 | 41.06351 | -73.71006 | 417 ft | 10 kts | 274° |
| 2026-05-05 02:25 | 41.06399 | -73.71044 | 413 ft | 4 kts | 10° |
| 2026-05-05 02:26 | 41.06400 | -73.71043 | 413 ft | 0 kts | 10° |
| 2026-05-05 02:26 | 41.06437 | -73.71034 | 419 ft | 13 kts | 12° |
| 2026-05-05 02:26 | 41.06456 | -73.70905 | 415 ft | 22 kts | 104° |
| 2026-05-05 02:26 | 41.06457 | -73.70738 | 417 ft | 11 kts | 15° |
| 2026-05-05 02:27 | 41.06493 | -73.70725 | 415 ft | 11 kts | 8° |
| 2026-05-05 02:27 | 41.06604 | -73.70770 | 415 ft | 23 kts | 330° |
| 2026-05-05 02:27 | 41.06773 | -73.70901 | 417 ft | 31 kts | 329° |
| 2026-05-05 02:27 | 41.06969 | -73.71054 | 418 ft | 34 kts | 330° |
| 2026-05-05 02:28 | 41.07182 | -73.71213 | 414 ft | 36 kts | 330° |
| 2026-05-05 02:28 | 41.07410 | -73.71390 | 414 ft | 34 kts | 331° |
| 2026-05-05 02:28 | 41.07496 | -73.71438 | 412 ft | 6 kts | 25° |
| 2026-05-05 02:28 | 41.07507 | -73.71427 | 419 ft | 0 kts | 51° |
| 2026-05-05 02:29 | 41.07509 | -73.71424 | 419 ft | 5 kts | 52° |
| 2026-05-05 02:29 | 41.07528 | -73.71298 | 417 ft | 23 kts | 156° |
| 2026-05-05 02:29 | 41.07452 | -73.71253 | 417 ft | 0 kts | 152° |
| 2026-05-05 02:30 | 41.07444 | -73.71247 | 416 ft | 12 kts | 152° |
| 2026-05-05 02:30 | 41.07194 | -73.71056 | 410 ft | 70 kts | 149° |
| 2026-05-05 02:31 | 41.06719 | -73.70655 | 603 ft | 87 kts | 144° |
| 2026-05-05 02:31 | 41.06167 | -73.70028 | 694 ft | 116 kts | 138° |
| 2026-05-05 02:31 | 41.05574 | -73.69326 | 1097 ft | 109 kts | 145° |
| 2026-05-05 02:31 | 41.04865 | -73.68998 | 1320 ft | 111 kts | 189° |
| 2026-05-05 02:32 | 41.04273 | -73.69454 | 1834 ft | 92 kts | 231° |
| 2026-05-05 02:32 | 41.04027 | -73.70184 | 2297 ft | 86 kts | 249° |
| 2026-05-05 02:32 | 41.04302 | -73.70929 | 2688 ft | 106 kts | 311° |
| 2026-05-05 02:32 | 41.04914 | -73.71461 | 3003 ft | 110 kts | 308° |
| 2026-05-05 02:33 | 41.05608 | -73.72152 | 3029 ft | 138 kts | 310° |
| 2026-05-05 02:33 | 41.06135 | -73.72707 | 3026 ft | 151 kts | 310° |
| 2026-05-05 02:33 | 41.06978 | -73.73619 | 3023 ft | 162 kts | 310° |
| 2026-05-05 02:33 | 41.07865 | -73.74579 | 3021 ft | 166 kts | 310° |
| 2026-05-05 02:34 | 41.08765 | -73.75541 | 3018 ft | 167 kts | 311° |
| 2026-05-05 02:34 | 41.09674 | -73.76514 | 3020 ft | 168 kts | 310° |
| 2026-05-05 02:34 | 41.10583 | -73.77500 | 3021 ft | 170 kts | 310° |
| 2026-05-05 02:34 | 41.11501 | -73.78495 | 3021 ft | 171 kts | 310° |
| 2026-05-05 02:35 | 41.12409 | -73.79486 | 3149 ft | 163 kts | 310° |
| 2026-05-05 02:35 | 41.13278 | -73.80377 | 3360 ft | 158 kts | 319° |
| 2026-05-05 02:35 | 41.14386 | -73.80649 | 3555 ft | 171 kts | 0° |
| 2026-05-05 02:35 | 41.15558 | -73.80356 | 3775 ft | 170 kts | 4° |
| 2026-05-05 02:36 | 41.16710 | -73.80068 | 3994 ft | 167 kts | 4° |
| 2026-05-05 02:36 | 41.17847 | -73.79770 | 4220 ft | 166 kts | 4° |
| 2026-05-05 02:36 | 41.18963 | -73.79376 | 4431 ft | 170 kts | 22° |
| 2026-05-05 02:36 | 41.19770 | -73.78232 | 4643 ft | 173 kts | 60° |
| 2026-05-05 02:37 | 41.20274 | -73.76794 | 4866 ft | 171 kts | 68° |
| 2026-05-05 02:37 | 41.20721 | -73.75342 | 5085 ft | 170 kts | 68° |
| 2026-05-05 02:37 | 41.21195 | -73.73914 | 5312 ft | 168 kts | 64° |
| 2026-05-05 02:37 | 41.21691 | -73.72496 | 5535 ft | 169 kts | 64° |
| 2026-05-05 02:38 | 41.22171 | -73.71089 | 5757 ft | 170 kts | 64° |
| 2026-05-05 02:38 | 41.22607 | -73.69633 | 5980 ft | 170 kts | 77° |
| 2026-05-05 02:38 | 41.22746 | -73.68070 | 6208 ft | 170 kts | 78° |
| 2026-05-05 02:38 | 41.23219 | -73.66666 | 6436 ft | 166 kts | 48° |
| 2026-05-05 02:39 | 41.23929 | -73.65465 | 6670 ft | 164 kts | 46° |
| 2026-05-05 02:39 | 41.24609 | -73.64267 | 6959 ft | 159 kts | 47° |
| 2026-05-05 02:39 | 41.25247 | -73.63123 | 7288 ft | 152 kts | 47° |
| 2026-05-05 02:39 | 41.25869 | -73.62013 | 7625 ft | 147 kts | 47° |
| 2026-05-05 02:40 | 41.26469 | -73.60940 | 7965 ft | 143 kts | 47° |
| 2026-05-05 02:40 | 41.27054 | -73.59890 | 8310 ft | 139 kts | 47° |
| 2026-05-05 02:40 | 41.27625 | -73.58867 | 8653 ft | 135 kts | 47° |
| 2026-05-05 02:40 | 41.28151 | -73.57849 | 8993 ft | 134 kts | 59° |
| 2026-05-05 02:41 | 41.28528 | -73.56734 | 9350 ft | 130 kts | 59° |
| 2026-05-05 02:41 | 41.28907 | -73.55675 | 9701 ft | 125 kts | 59° |
| 2026-05-05 02:41 | 41.29272 | -73.54652 | 9995 ft | 124 kts | 57° |
| 2026-05-05 02:41 | 41.29682 | -73.53514 | 10021 ft | 148 kts | 60° |
| 2026-05-05 02:42 | 41.30146 | -73.52188 | 10027 ft | 166 kts | 61° |
| 2026-05-05 02:42 | 41.30648 | -73.50762 | 10025 ft | 178 kts | 61° |
| 2026-05-05 02:42 | 41.31187 | -73.49232 | 10021 ft | 184 kts | 61° |
| 2026-05-05 02:42 | 41.31736 | -73.47681 | 10023 ft | 187 kts | 61° |
| 2026-05-05 02:43 | 41.32294 | -73.46108 | 10018 ft | 188 kts | 61° |
| 2026-05-05 02:43 | 41.32853 | -73.44527 | 10020 ft | 189 kts | 61° |
| 2026-05-05 02:43 | 41.33413 | -73.42944 | 10021 ft | 189 kts | 61° |
| 2026-05-05 02:43 | 41.33971 | -73.41365 | 10022 ft | 189 kts | 61° |
| 2026-05-05 02:44 | 41.34527 | -73.39795 | 10015 ft | 190 kts | 61° |
| 2026-05-05 02:44 | 41.35090 | -73.38202 | 10015 ft | 190 kts | 61° |
| 2026-05-05 02:44 | 41.35650 | -73.36614 | 10017 ft | 189 kts | 61° |
| 2026-05-05 02:44 | 41.36209 | -73.35030 | 10015 ft | 189 kts | 61° |
| 2026-05-05 02:45 | 41.36769 | -73.33443 | 10017 ft | 189 kts | 61° |
| 2026-05-05 02:45 | 41.37328 | -73.31854 | 10018 ft | 189 kts | 61° |
| 2026-05-05 02:45 | 41.37881 | -73.30285 | 10017 ft | 189 kts | 61° |
| 2026-05-05 02:45 | 41.38438 | -73.28702 | 10017 ft | 188 kts | 61° |
| 2026-05-05 02:46 | 41.38994 | -73.27122 | 10031 ft | 188 kts | 61° |
| 2026-05-05 02:46 | 41.39551 | -73.25540 | 10031 ft | 189 kts | 61° |
| 2026-05-05 02:46 | 41.40106 | -73.23960 | 10033 ft | 189 kts | 61° |
| 2026-05-05 02:46 | 41.40664 | -73.22372 | 10035 ft | 189 kts | 61° |
| 2026-05-05 02:47 | 41.41222 | -73.20784 | 10030 ft | 189 kts | 61° |
| 2026-05-05 02:47 | 41.41779 | -73.19195 | 10026 ft | 188 kts | 61° |
| 2026-05-05 02:47 | 41.42326 | -73.17635 | 10035 ft | 188 kts | 61° |
| 2026-05-05 02:47 | 41.42888 | -73.16032 | 10032 ft | 188 kts | 61° |
| 2026-05-05 02:48 | 41.43437 | -73.14465 | 10031 ft | 189 kts | 61° |
| 2026-05-05 02:48 | 41.43991 | -73.12881 | 10028 ft | 188 kts | 61° |
| 2026-05-05 02:48 | 41.44546 | -73.11296 | 10029 ft | 188 kts | 61° |
| 2026-05-05 02:48 | 41.45100 | -73.09712 | 10031 ft | 188 kts | 61° |
| 2026-05-05 02:49 | 41.45655 | -73.08123 | 10031 ft | 189 kts | 61° |
| 2026-05-05 02:49 | 41.46203 | -73.06553 | 10036 ft | 189 kts | 61° |
| 2026-05-05 02:49 | 41.46758 | -73.04964 | 10030 ft | 189 kts | 61° |
| 2026-05-05 02:49 | 41.47313 | -73.03375 | 10029 ft | 189 kts | 61° |
| 2026-05-05 02:50 | 41.47867 | -73.01784 | 10030 ft | 189 kts | 61° |
| 2026-05-05 02:50 | 41.48422 | -73.00191 | 10028 ft | 189 kts | 61° |
| 2026-05-05 02:50 | 41.48975 | -72.98605 | 10026 ft | 188 kts | 61° |
| 2026-05-05 02:50 | 41.49527 | -72.97018 | 10024 ft | 189 kts | 61° |
| 2026-05-05 02:51 | 41.50079 | -72.95431 | 10020 ft | 188 kts | 61° |
| 2026-05-05 02:51 | 41.50631 | -72.93845 | 10017 ft | 188 kts | 61° |
| 2026-05-05 02:51 | 41.51183 | -72.92257 | 10017 ft | 189 kts | 61° |
| 2026-05-05 02:51 | 41.51735 | -72.90668 | 10021 ft | 188 kts | 61° |
| 2026-05-05 02:52 | 41.52286 | -72.89080 | 10017 ft | 188 kts | 61° |
| 2026-05-05 02:52 | 41.52836 | -72.87494 | 10018 ft | 188 kts | 61° |
| 2026-05-05 02:52 | 41.53379 | -72.85927 | 10015 ft | 188 kts | 61° |
| 2026-05-05 02:52 | 41.53928 | -72.84344 | 10018 ft | 188 kts | 62° |
| 2026-05-05 02:53 | 41.54474 | -72.82769 | 10018 ft | 186 kts | 61° |
| 2026-05-05 02:53 | 41.55015 | -72.81207 | 10014 ft | 185 kts | 61° |
| 2026-05-05 02:53 | 41.55553 | -72.79653 | 10012 ft | 185 kts | 61° |
| 2026-05-05 02:53 | 41.56092 | -72.78093 | 10012 ft | 185 kts | 61° |
| 2026-05-05 02:54 | 41.56630 | -72.76536 | 10015 ft | 184 kts | 62° |
| 2026-05-05 02:54 | 41.57165 | -72.74987 | 10011 ft | 183 kts | 61° |
| 2026-05-05 02:54 | 41.57699 | -72.73441 | 10012 ft | 183 kts | 62° |
| 2026-05-05 02:54 | 41.58234 | -72.71889 | 10010 ft | 183 kts | 62° |
| 2026-05-05 02:55 | 41.58769 | -72.70337 | 10008 ft | 184 kts | 62° |
| 2026-05-05 02:55 | 41.59303 | -72.68786 | 10010 ft | 184 kts | 62° |
| 2026-05-05 02:55 | 41.59830 | -72.67257 | 9992 ft | 184 kts | 62° |
| 2026-05-05 02:55 | 41.60364 | -72.65705 | 9993 ft | 184 kts | 62° |
| 2026-05-05 02:56 | 41.60897 | -72.64157 | 9990 ft | 183 kts | 62° |
| 2026-05-05 02:56 | 41.61431 | -72.62606 | 9995 ft | 183 kts | 62° |
| 2026-05-05 02:56 | 41.61962 | -72.61059 | 9995 ft | 183 kts | 62° |
| 2026-05-05 02:56 | 41.62495 | -72.59509 | 9995 ft | 184 kts | 62° |
| 2026-05-05 02:57 | 41.63028 | -72.57955 | 9998 ft | 184 kts | 62° |
| 2026-05-05 02:57 | 41.63562 | -72.56400 | 9995 ft | 184 kts | 62° |
| 2026-05-05 02:57 | 41.63883 | -72.54744 | 9993 ft | 186 kts | 88° |
| 2026-05-05 02:57 | 41.63662 | -72.53052 | 9992 ft | 185 kts | 111° |
| 2026-05-05 02:58 | 41.63182 | -72.51450 | 9993 ft | 185 kts | 112° |
| 2026-05-05 02:58 | 41.62727 | -72.49865 | 10001 ft | 185 kts | 112° |
| 2026-05-05 02:58 | 41.62263 | -72.48240 | 9999 ft | 185 kts | 112° |
| 2026-05-05 02:58 | 41.61808 | -72.46655 | 10001 ft | 185 kts | 112° |
| 2026-05-05 02:59 | 41.61345 | -72.45045 | 10000 ft | 185 kts | 112° |
| 2026-05-05 02:59 | 41.60882 | -72.43435 | 9999 ft | 185 kts | 112° |
| 2026-05-05 02:59 | 41.60422 | -72.41838 | 9994 ft | 184 kts | 112° |
| 2026-05-05 02:59 | 41.59962 | -72.40239 | 10013 ft | 185 kts | 112° |
| 2026-05-05 03:00 | 41.59500 | -72.38638 | 10015 ft | 184 kts | 112° |
| 2026-05-05 03:00 | 41.59038 | -72.37036 | 10016 ft | 185 kts | 112° |
| 2026-05-05 03:00 | 41.58576 | -72.35435 | 10016 ft | 184 kts | 112° |
| 2026-05-05 03:00 | 41.58121 | -72.33857 | 10014 ft | 184 kts | 112° |
| 2026-05-05 03:01 | 41.57659 | -72.32259 | 10016 ft | 184 kts | 112° |
| 2026-05-05 03:01 | 41.57196 | -72.30657 | 10016 ft | 185 kts | 112° |
| 2026-05-05 03:01 | 41.56735 | -72.29062 | 10018 ft | 184 kts | 112° |
| 2026-05-05 03:01 | 41.56273 | -72.27467 | 10021 ft | 184 kts | 112° |
| 2026-05-05 03:02 | 41.55811 | -72.25873 | 10020 ft | 184 kts | 112° |
| 2026-05-05 03:02 | 41.55349 | -72.24280 | 10017 ft | 184 kts | 112° |
| 2026-05-05 03:02 | 41.54888 | -72.22690 | 10025 ft | 184 kts | 112° |
| 2026-05-05 03:02 | 41.54425 | -72.21091 | 10019 ft | 184 kts | 112° |
| 2026-05-05 03:03 | 41.53969 | -72.19523 | 10022 ft | 183 kts | 112° |
| 2026-05-05 03:03 | 41.53508 | -72.17936 | 10018 ft | 183 kts | 112° |
| 2026-05-05 03:03 | 41.53049 | -72.16354 | 10024 ft | 183 kts | 112° |
| 2026-05-05 03:03 | 41.52584 | -72.14759 | 10035 ft | 184 kts | 112° |
| 2026-05-05 03:04 | 41.52123 | -72.13172 | 10037 ft | 184 kts | 112° |
| 2026-05-05 03:04 | 41.51659 | -72.11581 | 10039 ft | 184 kts | 112° |
| 2026-05-05 03:04 | 41.51196 | -72.09990 | 10042 ft | 184 kts | 112° |
| 2026-05-05 03:04 | 41.50733 | -72.08403 | 10042 ft | 184 kts | 112° |
| 2026-05-05 03:05 | 41.50270 | -72.06814 | 10040 ft | 184 kts | 112° |
| 2026-05-05 03:05 | 41.49807 | -72.05230 | 10036 ft | 183 kts | 112° |
| 2026-05-05 03:05 | 41.49344 | -72.03646 | 10040 ft | 183 kts | 112° |
| 2026-05-05 03:05 | 41.48881 | -72.02063 | 10035 ft | 183 kts | 112° |
| 2026-05-05 03:06 | 41.48425 | -72.00503 | 10039 ft | 183 kts | 112° |
| 2026-05-05 03:06 | 41.47963 | -71.98923 | 10035 ft | 183 kts | 112° |
| 2026-05-05 03:06 | 41.47501 | -71.97346 | 10040 ft | 182 kts | 112° |
| 2026-05-05 03:06 | 41.47039 | -71.95769 | 10044 ft | 182 kts | 112° |
| 2026-05-05 03:07 | 41.46577 | -71.94194 | 10038 ft | 182 kts | 112° |
| 2026-05-05 03:07 | 41.46115 | -71.92620 | 10042 ft | 182 kts | 112° |
| 2026-05-05 03:07 | 41.45654 | -71.91048 | 10046 ft | 182 kts | 113° |
| 2026-05-05 03:07 | 41.45193 | -71.89478 | 10049 ft | 182 kts | 112° |
| 2026-05-05 03:08 | 41.44730 | -71.87906 | 10051 ft | 182 kts | 112° |
| 2026-05-05 03:08 | 41.44269 | -71.86338 | 10050 ft | 182 kts | 112° |
| 2026-05-05 03:08 | 41.43807 | -71.84767 | 10048 ft | 182 kts | 112° |
| 2026-05-05 03:08 | 41.43346 | -71.83198 | 10049 ft | 182 kts | 113° |
| 2026-05-05 03:09 | 41.42889 | -71.81650 | 10050 ft | 182 kts | 113° |
| 2026-05-05 03:09 | 41.42426 | -71.80078 | 10051 ft | 182 kts | 113° |
| 2026-05-05 03:09 | 41.41964 | -71.78512 | 10052 ft | 182 kts | 113° |
| 2026-05-05 03:09 | 41.41500 | -71.76940 | 10052 ft | 182 kts | 113° |
| 2026-05-05 03:10 | 41.41036 | -71.75370 | 10048 ft | 182 kts | 113° |
| 2026-05-05 03:10 | 41.40570 | -71.73794 | 10049 ft | 182 kts | 113° |
| 2026-05-05 03:10 | 41.40106 | -71.72222 | 10050 ft | 182 kts | 113° |
| 2026-05-05 03:10 | 41.39641 | -71.70649 | 10047 ft | 182 kts | 113° |
| 2026-05-05 03:11 | 41.39180 | -71.69095 | 10049 ft | 183 kts | 113° |
| 2026-05-05 03:11 | 41.38712 | -71.67514 | 10047 ft | 183 kts | 113° |
| 2026-05-05 03:11 | 41.38247 | -71.65941 | 10049 ft | 183 kts | 113° |
| 2026-05-05 03:11 | 41.37780 | -71.64372 | 10047 ft | 182 kts | 113° |
| 2026-05-05 03:12 | 41.37312 | -71.62796 | 10044 ft | 182 kts | 113° |
| 2026-05-05 03:12 | 41.36847 | -71.61228 | 10047 ft | 182 kts | 113° |
| 2026-05-05 03:12 | 41.36379 | -71.59652 | 10048 ft | 183 kts | 113° |
| 2026-05-05 03:12 | 41.35911 | -71.58079 | 10048 ft | 183 kts | 113° |
| 2026-05-05 03:13 | 41.35442 | -71.56502 | 10040 ft | 183 kts | 114° |
| 2026-05-05 03:13 | 41.34974 | -71.54928 | 10055 ft | 183 kts | 113° |
| 2026-05-05 03:13 | 41.34504 | -71.53349 | 10055 ft | 183 kts | 113° |
| 2026-05-05 03:13 | 41.34033 | -71.51771 | 10056 ft | 184 kts | 114° |
| 2026-05-05 03:14 | 41.33563 | -71.50192 | 10053 ft | 184 kts | 114° |
| 2026-05-05 03:14 | 41.33091 | -71.48613 | 10054 ft | 183 kts | 114° |
| 2026-05-05 03:14 | 41.32620 | -71.47037 | 10051 ft | 183 kts | 114° |
| 2026-05-05 03:14 | 41.32148 | -71.45457 | 10050 ft | 184 kts | 113° |
| 2026-05-05 03:15 | 41.31683 | -71.43899 | 10055 ft | 184 kts | 114° |
| 2026-05-05 03:15 | 41.31209 | -71.42317 | 10052 ft | 184 kts | 114° |
| 2026-05-05 03:15 | 41.30736 | -71.40737 | 10053 ft | 184 kts | 113° |
| 2026-05-05 03:15 | 41.30261 | -71.39151 | 10054 ft | 185 kts | 114° |
| 2026-05-05 03:16 | 41.29785 | -71.37565 | 10054 ft | 185 kts | 114° |
| 2026-05-05 03:16 | 41.29309 | -71.35975 | 10054 ft | 185 kts | 114° |
| 2026-05-05 03:16 | 41.28833 | -71.34384 | 10048 ft | 185 kts | 113° |
| 2026-05-05 03:16 | 41.28355 | -71.32795 | 10057 ft | 185 kts | 113° |
| 2026-05-05 03:17 | 41.27878 | -71.31205 | 10054 ft | 185 kts | 114° |
| 2026-05-05 03:17 | 41.27407 | -71.29639 | 10050 ft | 185 kts | 114° |
| 2026-05-05 03:17 | 41.26929 | -71.28052 | 10056 ft | 185 kts | 114° |
| 2026-05-05 03:17 | 41.26452 | -71.26459 | 10055 ft | 185 kts | 114° |
| 2026-05-05 03:18 | 41.25970 | -71.24869 | 10058 ft | 186 kts | 114° |
| 2026-05-05 03:18 | 41.25489 | -71.23277 | 10058 ft | 186 kts | 114° |
| 2026-05-05 03:18 | 41.25011 | -71.21677 | 10014 ft | 189 kts | 114° |
| 2026-05-05 03:18 | 41.24518 | -71.20048 | 9989 ft | 188 kts | 114° |
| 2026-05-05 03:19 | 41.23546 | -71.16831 | 9991 ft | 187 kts | 114° |
| 2026-05-05 03:19 | 41.23226 | -71.15769 | 9999 ft | 186 kts | 114° |
| 2026-05-05 03:19 | 41.22743 | -71.14171 | 9989 ft | 187 kts | 114° |
| 2026-05-05 03:20 | 41.22259 | -71.12571 | 9996 ft | 187 kts | 114° |
| 2026-05-05 03:20 | 41.21616 | -71.10453 | 10000 ft | 187 kts | 114° |
| 2026-05-05 03:20 | 41.21290 | -71.09369 | 9998 ft | 187 kts | 114° |
| 2026-05-05 03:20 | 41.20805 | -71.07768 | 10001 ft | 187 kts | 114° |
| 2026-05-05 03:21 | 41.20250 | -71.06244 | 10003 ft | 186 kts | 120° |
| 2026-05-05 03:21 | 41.19657 | -71.04720 | 9999 ft | 186 kts | 119° |
| 2026-05-05 03:21 | 41.19077 | -71.03192 | 9996 ft | 185 kts | 120° |
| 2026-05-05 03:21 | 41.18488 | -71.01670 | 10002 ft | 185 kts | 120° |
| 2026-05-05 03:22 | 41.17902 | -71.00147 | 10002 ft | 185 kts | 119° |
| 2026-05-05 03:22 | 41.17318 | -70.98622 | 10005 ft | 185 kts | 119° |
| 2026-05-05 03:22 | 41.16728 | -70.97095 | 10001 ft | 185 kts | 120° |
| 2026-05-05 03:22 | 41.16141 | -70.95573 | 10006 ft | 185 kts | 119° |
| 2026-05-05 03:23 | 41.15554 | -70.94051 | 9996 ft | 185 kts | 120° |
| 2026-05-05 03:23 | 41.14965 | -70.92531 | 10002 ft | 185 kts | 120° |
| 2026-05-05 03:23 | 41.14382 | -70.91009 | 10008 ft | 185 kts | 120° |
| 2026-05-05 03:23 | 41.13795 | -70.89487 | 10006 ft | 185 kts | 120° |
| 2026-05-05 03:24 | 41.13203 | -70.87966 | 10010 ft | 185 kts | 120° |
| 2026-05-05 03:24 | 41.12613 | -70.86444 | 10001 ft | 185 kts | 119° |
| 2026-05-05 03:24 | 41.12026 | -70.84920 | 10007 ft | 186 kts | 119° |
| 2026-05-05 03:24 | 41.11689 | -70.83264 | 10007 ft | 188 kts | 91° |
| 2026-05-05 03:25 | 41.11876 | -70.81582 | 10010 ft | 187 kts | 73° |
| 2026-05-05 03:25 | 41.12194 | -70.79911 | 10012 ft | 187 kts | 74° |
| 2026-05-05 03:25 | 41.12493 | -70.78227 | 10007 ft | 188 kts | 75° |
| 2026-05-05 03:25 | 41.12796 | -70.76542 | 10005 ft | 188 kts | 74° |
| 2026-05-05 03:26 | 41.13101 | -70.74855 | 10011 ft | 188 kts | 74° |
| 2026-05-05 03:26 | 41.13406 | -70.73173 | 10014 ft | 188 kts | 74° |
| 2026-05-05 03:26 | 41.13711 | -70.71484 | 10011 ft | 188 kts | 74° |
| 2026-05-05 03:26 | 41.14016 | -70.69794 | 10005 ft | 188 kts | 75° |
| 2026-05-05 03:27 | 41.14319 | -70.68104 | 10003 ft | 188 kts | 75° |
| 2026-05-05 03:27 | 41.14625 | -70.66412 | 10008 ft | 188 kts | 75° |
| 2026-05-05 03:27 | 41.14924 | -70.64744 | 10005 ft | 188 kts | 75° |
| 2026-05-05 03:27 | 41.15231 | -70.63033 | 10007 ft | 188 kts | 75° |
| 2026-05-05 03:28 | 41.15532 | -70.61363 | 10002 ft | 188 kts | 75° |
| 2026-05-05 03:28 | 41.15834 | -70.59674 | 10003 ft | 188 kts | 75° |
| 2026-05-05 03:28 | 41.16138 | -70.57983 | 10003 ft | 188 kts | 75° |
| 2026-05-05 03:28 | 41.16449 | -70.56251 | 9807 ft | 198 kts | 75° |
| 2026-05-05 03:29 | 41.16769 | -70.54446 | 9547 ft | 202 kts | 75° |
| 2026-05-05 03:29 | 41.17090 | -70.52635 | 9287 ft | 200 kts | 75° |
| 2026-05-05 03:29 | 41.17410 | -70.50853 | 9020 ft | 197 kts | 75° |
| 2026-05-05 03:29 | 41.17724 | -70.49091 | 8761 ft | 196 kts | 75° |
| 2026-05-05 03:30 | 41.18039 | -70.47334 | 8501 ft | 195 kts | 75° |
| 2026-05-05 03:30 | 41.18422 | -70.45631 | 8244 ft | 194 kts | 70° |
| 2026-05-05 03:30 | 41.18852 | -70.43931 | 7994 ft | 194 kts | 71° |
| 2026-05-05 03:30 | 41.19250 | -70.42222 | 7741 ft | 194 kts | 72° |
| 2026-05-05 03:31 | 41.19637 | -70.40505 | 7492 ft | 194 kts | 72° |
| 2026-05-05 03:31 | 41.20027 | -70.38798 | 7251 ft | 193 kts | 72° |
| 2026-05-05 03:31 | 41.20418 | -70.37084 | 7005 ft | 193 kts | 72° |
| 2026-05-05 03:31 | 41.20808 | -70.35373 | 6761 ft | 193 kts | 72° |
| 2026-05-05 03:32 | 41.21191 | -70.33688 | 6517 ft | 193 kts | 72° |
| 2026-05-05 03:32 | 41.21579 | -70.31987 | 6268 ft | 192 kts | 72° |
| 2026-05-05 03:32 | 41.21966 | -70.30283 | 6010 ft | 192 kts | 72° |
| 2026-05-05 03:32 | 41.22353 | -70.28585 | 5755 ft | 192 kts | 72° |
| 2026-05-05 03:33 | 41.22737 | -70.26890 | 5505 ft | 192 kts | 72° |
| 2026-05-05 03:33 | 41.23122 | -70.25194 | 5253 ft | 191 kts | 72° |
| 2026-05-05 03:33 | 41.23507 | -70.23502 | 5002 ft | 191 kts | 72° |
| 2026-05-05 03:33 | 41.23890 | -70.21807 | 4755 ft | 191 kts | 72° |
| 2026-05-05 03:34 | 41.24275 | -70.20112 | 4499 ft | 191 kts | 73° |
| 2026-05-05 03:34 | 41.24658 | -70.18415 | 4245 ft | 192 kts | 73° |
| 2026-05-05 03:34 | 41.25042 | -70.16718 | 3992 ft | 192 kts | 73° |
| 2026-05-05 03:34 | 41.25423 | -70.15030 | 3737 ft | 190 kts | 73° |
| 2026-05-05 03:35 | 41.25797 | -70.13375 | 3490 ft | 189 kts | 73° |
| 2026-05-05 03:35 | 41.26174 | -70.11702 | 3238 ft | 189 kts | 73° |
| 2026-05-05 03:35 | 41.26553 | -70.10027 | 2986 ft | 190 kts | 74° |
| 2026-05-05 03:35 | 41.26931 | -70.08345 | 2732 ft | 191 kts | 74° |
| 2026-05-05 03:36 | 41.27318 | -70.06623 | 2478 ft | 195 kts | 75° |
| 2026-05-05 03:36 | 41.27709 | -70.04892 | 2225 ft | 197 kts | 75° |
| 2026-05-05 03:36 | 41.28135 | -70.03142 | 2023 ft | 197 kts | 67° |
| 2026-05-05 03:36 | 41.28907 | -70.01737 | 2018 ft | 187 kts | 40° |
| 2026-05-05 03:37 | 41.29834 | -70.00537 | 2013 ft | 184 kts | 41° |
| 2026-05-05 03:37 | 41.30729 | -69.99324 | 2010 ft | 183 kts | 41° |
| 2026-05-05 03:37 | 41.31621 | -69.98127 | 2010 ft | 181 kts | 40° |
| 2026-05-05 03:37 | 41.32517 | -69.96935 | 2006 ft | 182 kts | 40° |
| 2026-05-05 03:38 | 41.33409 | -69.95746 | 2005 ft | 180 kts | 41° |
| 2026-05-05 03:38 | 41.34291 | -69.94566 | 2008 ft | 179 kts | 40° |
| 2026-05-05 03:38 | 41.35171 | -69.93390 | 2013 ft | 180 kts | 40° |
| 2026-05-05 03:38 | 41.36052 | -69.92213 | 2011 ft | 179 kts | 40° |
| 2026-05-05 03:39 | 41.36924 | -69.91047 | 2013 ft | 180 kts | 40° |
| 2026-05-05 03:39 | 41.37812 | -69.89860 | 2009 ft | 182 kts | 40° |
| 2026-05-05 03:39 | 41.38706 | -69.88664 | 2007 ft | 182 kts | 41° |
| 2026-05-05 03:39 | 41.39615 | -69.87502 | 2015 ft | 179 kts | 33° |
| 2026-05-05 03:40 | 41.40522 | -69.86351 | 2008 ft | 181 kts | 43° |
| 2026-05-05 03:40 | 41.41341 | -69.85172 | 2003 ft | 163 kts | 41° |
| 2026-05-05 03:40 | 41.42096 | -69.84151 | 2014 ft | 145 kts | 38° |
| 2026-05-05 03:40 | 41.42785 | -69.83246 | 2003 ft | 135 kts | 37° |
| 2026-05-05 03:41 | 41.43536 | -69.82684 | 2002 ft | 115 kts | 355° |
| 2026-05-05 03:41 | 41.44274 | -69.82667 | 2004 ft | 97 kts | 328° |
| 2026-05-05 03:41 | 41.44840 | -69.82968 | 2005 ft | 82 kts | 306° |
| 2026-05-05 03:41 | 41.45241 | -69.83434 | 2006 ft | 72 kts | 289° |
| 2026-05-05 03:42 | 41.45492 | -69.83972 | 2004 ft | 66 kts | 276° |
| 2026-05-05 03:42 | 41.45615 | -69.84546 | 2005 ft | 64 kts | 266° |
| 2026-05-05 03:42 | 41.45625 | -69.85141 | 2016 ft | 65 kts | 256° |
| 2026-05-05 03:42 | 41.45508 | -69.85749 | 2019 ft | 72 kts | 246° |
| 2026-05-05 03:43 | 41.45241 | -69.86346 | 2019 ft | 78 kts | 233° |
| 2026-05-05 03:43 | 41.44816 | -69.86832 | 2025 ft | 84 kts | 219° |
| 2026-05-05 03:43 | 41.44242 | -69.87123 | 2021 ft | 95 kts | 203° |
| 2026-05-05 03:43 | 41.43550 | -69.87145 | 2022 ft | 104 kts | 192° |
| 2026-05-05 03:44 | 41.42825 | -69.87135 | 2023 ft | 105 kts | 193° |
| 2026-05-05 03:44 | 41.42100 | -69.87128 | 2022 ft | 103 kts | 194° |
| 2026-05-05 03:44 | 41.41381 | -69.87124 | 2024 ft | 103 kts | 194° |
| 2026-05-05 03:44 | 41.40660 | -69.87120 | 2020 ft | 104 kts | 193° |
| 2026-05-05 03:45 | 41.39955 | -69.87220 | 2015 ft | 98 kts | 209° |
| 2026-05-05 03:45 | 41.39387 | -69.87652 | 2011 ft | 93 kts | 225° |
| 2026-05-05 03:45 | 41.38946 | -69.88252 | 1997 ft | 93 kts | 230° |
| 2026-05-05 03:45 | 41.38474 | -69.88886 | 1874 ft | 98 kts | 229° |
| 2026-05-05 03:46 | 41.37992 | -69.89528 | 1752 ft | 98 kts | 230° |
| 2026-05-05 03:46 | 41.37530 | -69.90150 | 1626 ft | 90 kts | 230° |
| 2026-05-05 03:46 | 41.37120 | -69.90699 | 1608 ft | 79 kts | 230° |
| 2026-05-05 03:46 | 41.36743 | -69.91201 | 1605 ft | 75 kts | 230° |
| 2026-05-05 03:47 | 41.36378 | -69.91687 | 1607 ft | 74 kts | 231° |
| 2026-05-05 03:47 | 41.36020 | -69.92165 | 1609 ft | 74 kts | 230° |
| 2026-05-05 03:47 | 41.35652 | -69.92656 | 1611 ft | 75 kts | 230° |
| 2026-05-05 03:47 | 41.35279 | -69.93153 | 1606 ft | 77 kts | 230° |
| 2026-05-05 03:48 | 41.34901 | -69.93656 | 1606 ft | 77 kts | 230° |
| 2026-05-05 03:48 | 41.34522 | -69.94162 | 1610 ft | 77 kts | 229° |
| 2026-05-05 03:48 | 41.34141 | -69.94669 | 1613 ft | 77 kts | 229° |
| 2026-05-05 03:48 | 41.33766 | -69.95169 | 1611 ft | 75 kts | 229° |
| 2026-05-05 03:49 | 41.33400 | -69.95655 | 1610 ft | 73 kts | 230° |
| 2026-05-05 03:49 | 41.33043 | -69.96130 | 1608 ft | 72 kts | 229° |
| 2026-05-05 03:49 | 41.32693 | -69.96595 | 1610 ft | 72 kts | 229° |
| 2026-05-05 03:49 | 41.32340 | -69.97065 | 1608 ft | 71 kts | 229° |
| 2026-05-05 03:50 | 41.31989 | -69.97532 | 1610 ft | 71 kts | 229° |
| 2026-05-05 03:50 | 41.31637 | -69.98000 | 1604 ft | 73 kts | 229° |
| 2026-05-05 03:50 | 41.31276 | -69.98485 | 1535 ft | 69 kts | 228° |
| 2026-05-05 03:50 | 41.30969 | -69.98893 | 1442 ft | 59 kts | 228° |
| 2026-05-05 03:51 | 41.30687 | -69.99265 | 1354 ft | 55 kts | 227° |
| 2026-05-05 03:51 | 41.30434 | -69.99605 | 1282 ft | 51 kts | 228° |
| 2026-05-05 03:51 | 41.30190 | -69.99923 | 1213 ft | 48 kts | 229° |
| 2026-05-05 03:51 | 41.29960 | -70.00230 | 1153 ft | 46 kts | 226° |
| 2026-05-05 03:52 | 41.29724 | -70.00543 | 1098 ft | 51 kts | 227° |
| 2026-05-05 03:52 | 41.29450 | -70.00909 | 1037 ft | 60 kts | 225° |
| 2026-05-05 03:52 | 41.29144 | -70.01316 | 960 ft | 64 kts | 225° |
| 2026-05-05 03:52 | 41.28826 | -70.01736 | 872 ft | 66 kts | 224° |
| 2026-05-05 03:53 | 41.28506 | -70.02161 | 781 ft | 64 kts | 223° |
| 2026-05-05 03:53 | 41.28198 | -70.02569 | 688 ft | 62 kts | 224° |
| 2026-05-05 03:53 | 41.27885 | -70.02996 | 618 ft | 66 kts | 223° |
| 2026-05-05 03:53 | 41.27565 | -70.03418 | 522 ft | 63 kts | 221° |
| 2026-05-05 03:54 | 41.27258 | -70.03828 | 432 ft | 63 kts | 223° |
| 2026-05-05 03:54 | 41.26940 | -70.04255 | 353 ft | 67 kts | 223° |
| 2026-05-05 03:54 | 41.26607 | -70.04683 | 253 ft | 66 kts | 222° |
| 2026-05-05 03:54 | 41.26300 | -70.05124 | 177 ft | 65 kts | 226° |
| 2026-05-05 03:55 | 41.25988 | -70.05539 | 103 ft | 64 kts | 223° |
| 2026-05-05 03:55 | 41.25694 | -70.05922 | 51 ft | 53 kts | 223° |
| 2026-05-05 03:55 | 41.25479 | -70.06206 | 49 ft | 31 kts | 225° |
| 2026-05-05 03:55 | 41.25375 | -70.06399 | 47 ft | 24 kts | 286° |
| 2026-05-05 03:56 | 41.25412 | -70.06454 | 46 ft | 0 kts | 317° |
| 2026-05-05 03:56 | 41.25425 | -70.06471 | 46 ft | 9 kts | 313° |
| 2026-05-05 03:56 | 41.25478 | -70.06540 | 47 ft | 16 kts | 314° |
| 2026-05-05 03:57 | 41.25540 | -70.06593 | 47 ft | 13 kts | 26° |
| 2026-05-05 03:57 | 41.25572 | -70.06561 | 48 ft | 0 kts | 299° |